Details From RCSS - Sungshan
To RCFN - FENGNIN
Flight Number -
Tags decoded
Created
Modified
Stats Distance 163 nm / 302 km
Max Altitude 0 ft / 0 m
Waypoints 4
Social Downloads 2
Likes 0
Share VATSIM

Download

Looking for another format? Having issues loading an existing format? Contact us
Advertisement - Login to hide

Notes

Requested: RCSS WADER TINHO TITUS WAGON JICHI TACLE GID RCFN Unmatched points: B591

Route

RCSS WADER TACLE RCFN

ID Type Via Altitude Latitude Longitude Leg Dist Tot Dist Heading (true) Name
O RCSS APT - 0 ft / 0 m 25.06959˚ 121.55257˚ - 0 nm - Sungshan
WADER FIX - 0 ft / 0 m 24.50639˚ 121.93472˚ 39 nm 39 nm 148° / 148° -
TACLE FIX - 0 ft / 0 m 22.99389˚ 121.58694˚ 92 nm 132 nm 192° / 192° -
O RCFN APT - 0 ft / 0 m 22.75487˚ 121.10165˚ 30 nm 163 nm 242° / 242° FENGNIN

Altitude Profile

Advertisement - Login to hide

Weather


0- 5 10 15 20 25 30 35+ Temperature / ° C

Clouds and Precipitation
Forecast for 2018-05-24 00:00 UTC. Updated 3 hours ago

Ground ~20,000 ft ~40,000 ft Winds

RCSS

Details ICAO RCSS (TSA)
Name Sungshan
Region Republic of China (Taiwan)
Timezone Asia/Taipei (UTC+8.0)
Stats Elevation 18 ft / 5 m (AMSL)
Location 25.069586° 121.552570°
Runways 1
Magnetic Variation 4.518° W

METAR

RCSS 240230Z VRB02KT 9999 FEW025 33/23 Q1011 NOSIG RMK A2987

Decode

TAF

TAF RCSS 232300Z 2400/2424 09007KT 9999 FEW015 BKN032 TEMPO 2418/2424 VRB03KT

Decode

Departure Runways

ID Width Length Bearing (true) Bearing (mag) Surface Threshold Offset Overrun Length
10 197 ft / 60 m 8,566 ft / 2,611 m 92.26° 96.78° Asphalt 0 ft / 0 m 197 ft / 60 m
28 197 ft / 60 m 8,566 ft / 2,611 m 272.27° 276.79° Asphalt 0 ft / 0 m 525 ft / 160 m

RCFN

Details ICAO RCFN (TTT)
Name FENGNIN
Region Republic of China (Taiwan)
Timezone Asia/Taipei (UTC+8.0)
Stats Elevation 143 ft / 44 m (AMSL)
Location 22.754872° 121.101650°
Runways 1
Magnetic Variation 3.941° W

METAR

RCFN 240230Z 09010KT 060V130 9999 FEW020 31/24 Q1012 NOSIG RMK A2991

Decode

TAF

TAF TAF RCFN 232300Z 2400/2424 04007KT 9999 FEW012 BKN032 BKN060 TEMPO 2405/2410 10007KT 4000 SHRA FEW010 FEW012CB BKN016 BKN040 BECMG 2410/2412 35005KT

Decode

Destination Runways

ID Width Length Bearing (true) Bearing (mag) Surface Threshold Offset Overrun Length
04 148 ft / 45 m 8,019 ft / 2,444 m 38.51° 42.45° Asphalt 0 ft / 0 m 750 ft / 229 m
22 148 ft / 45 m 8,019 ft / 2,444 m 218.52° 222.46° Asphalt 0 ft / 0 m 745 ft / 227 m

Popular Alternatives